Argo, Illinois
Current Conditions -  °F | °C
As of 10:53 PM on Friday 24 Oct 2014 (Local Time) from KMDW Reporting Station
Overcast Overcast  
Wind Chill: 63°   Ceiling: 4100
Heat Index: 63°   Visibility: 10mi
Dew Point: 49°   Wind: 8mph
Humidity: 60%   Direction: 220°SW
Pressure: 29.94"   Gusts: NA
Location:  41.7806°N, 87.8151°W
Report Text: KMDW 250353Z 22007KT 10SM OVC041 17/09 A2994 RMK AO2 SLP134 T01720094
Loading
Personal Weather Stations






























Interactive Weather Map
Tropical Storm Tracking
New forecast layout! Learn more

10-Day Weather Forecast

Advertisements
Track Severe Weather on mobile